createdAt,value
2019-04-22T00:02:22.556Z,10.60
2019-04-22T00:05:04.789Z,10.60
2019-04-22T00:07:56.351Z,10.50
2019-04-22T00:10:26.129Z,10.50
2019-04-22T00:13:02.805Z,10.40
2019-04-22T00:15:29.220Z,10.40
2019-04-22T00:18:16.191Z,10.30
2019-04-22T00:20:42.488Z,10.30
2019-04-22T00:23:11.458Z,10.20
2019-04-22T00:25:56.080Z,10.20
2019-04-22T00:28:21.599Z,10.20
2019-04-22T00:31:00.743Z,10.20
2019-04-22T00:33:31.271Z,10.20
2019-04-22T00:36:08.857Z,10.20
2019-04-22T00:38:48.962Z,10.10
2019-04-22T00:41:16.702Z,10.10
2019-04-22T00:43:48.120Z,10.10
2019-04-22T00:46:19.570Z,10.00
2019-04-22T00:49:33.100Z,10.00
2019-04-22T00:51:28.749Z,10.00
2019-04-22T00:53:57.804Z,9.90
2019-04-22T00:56:27.722Z,9.90
2019-04-22T00:58:59.055Z,9.90
2019-04-22T01:01:41.007Z,9.90
2019-04-22T01:06:42.752Z,9.80
2019-04-22T01:09:16.879Z,9.80
2019-04-22T01:12:07.632Z,9.70
2019-04-22T01:14:21.642Z,9.70
2019-04-22T01:16:56.507Z,9.70
2019-04-22T01:19:32.372Z,9.70
2019-04-22T01:21:58.394Z,9.60
2019-04-22T01:24:32.364Z,9.50
2019-04-22T01:27:03.662Z,9.50
2019-04-22T01:29:30.371Z,9.40
2019-04-22T01:31:51.405Z,9.40
2019-04-22T01:34:40.375Z,9.40
2019-04-22T01:37:19.745Z,9.40
2019-04-22T01:39:56.991Z,9.40
2019-04-22T01:42:35.753Z,9.40
2019-04-22T01:45:06.703Z,9.40
2019-04-22T01:47:36.754Z,9.40
2019-04-22T01:50:17.217Z,9.40
2019-04-22T01:52:47.355Z,9.50
2019-04-22T01:55:28.828Z,9.50
2019-04-22T01:57:50.024Z,9.50
2019-04-22T02:00:16.425Z,9.50
2019-04-22T02:02:59.180Z,9.50
2019-04-22T02:05:32.764Z,9.60
2019-04-22T02:08:06.743Z,9.70
2019-04-22T02:10:40.689Z,9.70
2019-04-22T02:13:09.922Z,9.80
2019-04-22T02:15:47.999Z,9.80
2019-04-22T02:18:22.996Z,9.80
2019-04-22T02:20:50.034Z,9.80
2019-04-22T02:26:10.852Z,9.80
2019-04-22T02:41:26.189Z,10.00
2019-04-22T02:46:44.974Z,10.10
2019-04-22T02:49:11.130Z,10.10
2019-04-22T02:51:32.642Z,10.10
2019-04-22T02:59:14.621Z,10.20
2019-04-22T03:01:47.864Z,10.20
2019-04-22T03:04:22.789Z,10.20
2019-04-22T03:12:14.370Z,10.30
2019-04-22T03:14:50.991Z,10.30
2019-04-22T03:19:56.687Z,10.20
2019-04-22T03:22:16.965Z,10.20
2019-04-22T03:25:06.133Z,10.20
2019-04-22T03:27:36.835Z,10.20
2019-04-22T03:42:56.313Z,10.00
2019-04-22T03:48:03.723Z,10.00
2019-04-22T03:50:38.996Z,10.00
2019-04-22T03:53:11.161Z,10.00
2019-04-22T03:55:41.319Z,10.00
2019-04-22T03:58:23.794Z,9.90
2019-04-22T04:03:11.751Z,9.80
2019-04-22T04:05:56.912Z,9.80
2019-04-22T04:08:26.361Z,9.80
2019-04-22T04:10:55.586Z,9.70
2019-04-22T04:15:57.642Z,9.70
2019-04-22T04:18:46.767Z,9.60
2019-04-22T04:21:22.690Z,9.60
2019-04-22T04:24:05.693Z,9.60
2019-04-22T04:26:17.745Z,9.60
2019-04-22T04:29:21.607Z,9.60
2019-04-22T04:33:54.239Z,9.60
2019-04-22T04:36:28.332Z,9.60
2019-04-22T04:39:01.030Z,9.50
2019-04-22T04:46:45.159Z,9.50
2019-04-22T04:56:46.578Z,9.60
2019-04-22T04:59:50.803Z,9.60
2019-04-22T05:01:52.692Z,9.70
2019-04-22T05:04:37.238Z,9.70
2019-04-22T05:12:12.365Z,9.80
2019-04-22T05:14:36.861Z,9.80
2019-04-22T05:17:12.815Z,9.90
2019-04-22T05:19:50.447Z,9.90
2019-04-22T05:22:14.899Z,10.00
2019-04-22T05:24:53.371Z,10.10
2019-04-22T05:27:32.961Z,10.20
2019-04-22T05:30:07.464Z,10.40
2019-04-22T05:32:25.713Z,10.50
2019-04-22T05:35:00.450Z,10.70
2019-04-22T05:37:34.159Z,10.80
2019-04-22T05:40:10.326Z,10.90
2019-04-22T05:42:32.169Z,11.10
2019-04-22T05:47:50.720Z,11.40
2019-04-22T05:52:54.185Z,11.70
2019-04-22T05:55:23.754Z,11.80
2019-04-22T06:01:01.918Z,12.10
2019-04-22T06:03:12.259Z,12.20
2019-04-22T06:05:41.758Z,12.30
2019-04-22T06:08:10.291Z,12.30
2019-04-22T06:10:58.104Z,12.50
2019-04-22T06:13:20.250Z,12.60
2019-04-22T06:15:54.378Z,12.70
2019-04-22T06:18:27.458Z,12.80
2019-04-22T06:21:09.083Z,12.80
2019-04-22T06:23:40.280Z,12.90
2019-04-22T06:26:26.834Z,13.10
2019-04-22T06:28:50.096Z,13.10
2019-04-22T06:31:23.021Z,13.20
2019-04-22T06:33:48.720Z,13.40
2019-04-22T06:36:26.278Z,13.40
2019-04-22T06:38:56.652Z,13.50
2019-04-22T06:41:28.389Z,13.60
2019-04-22T06:44:09.371Z,13.70
2019-04-22T06:46:36.742Z,13.90
2019-04-22T06:49:12.862Z,14.10
2019-04-22T06:51:38.906Z,14.20
2019-04-22T06:54:17.959Z,14.20
2019-04-22T06:56:49.155Z,14.30
2019-04-22T06:59:24.750Z,14.40
2019-04-22T07:02:02.617Z,14.50
2019-04-22T07:04:30.201Z,14.60
2019-04-22T07:07:05.205Z,14.80
2019-04-22T07:12:13.074Z,15.00
2019-04-22T07:14:47.478Z,15.10
2019-04-22T07:17:15.004Z,15.30
2019-04-22T07:19:45.334Z,15.40
2019-04-22T07:24:53.906Z,15.50
2019-04-22T07:27:20.643Z,15.50
2019-04-22T07:30:03.571Z,15.60
2019-04-22T07:32:53.604Z,15.70
2019-04-22T07:35:08.469Z,15.90
2019-04-22T07:40:09.947Z,16.10
2019-04-22T07:42:46.015Z,16.20
2019-04-22T07:45:17.882Z,16.30
2019-04-22T07:47:56.132Z,16.40
2019-04-22T07:50:39.290Z,16.50
2019-04-22T07:52:51.421Z,16.70
2019-04-22T07:55:29.471Z,16.80
2019-04-22T07:58:10.670Z,16.90
2019-04-22T08:00:39.008Z,16.90
2019-04-22T08:03:14.569Z,17.10
2019-04-22T08:05:51.579Z,17.10
2019-04-22T08:08:21.568Z,17.20
2019-04-22T08:13:25.342Z,17.40
2019-04-22T08:15:58.052Z,17.60
2019-04-22T08:21:07.558Z,17.80
2019-04-22T08:26:11.391Z,18.00
2019-04-22T08:28:50.855Z,18.10
2019-04-22T08:31:24.910Z,18.20
2019-04-22T08:34:08.200Z,18.30
2019-04-22T08:36:25.632Z,18.40
2019-04-22T08:39:14.067Z,18.60
2019-04-22T08:44:18.702Z,18.70
2019-04-22T08:46:40.396Z,18.80
2019-04-22T08:49:09.871Z,18.90
2019-04-22T08:51:43.106Z,19.00
2019-04-22T08:54:18.297Z,19.00
2019-04-22T08:57:00.153Z,19.10
2019-04-22T08:59:30.864Z,19.20
2019-04-22T09:02:06.582Z,19.30
2019-04-22T09:04:39.201Z,19.40
2019-04-22T09:09:44.546Z,19.50
2019-04-22T09:15:01.141Z,19.50
2019-04-22T09:17:28.344Z,19.50
2019-04-22T09:19:55.931Z,19.50
2019-04-22T09:22:28.044Z,19.50
2019-04-22T09:24:58.959Z,19.60
2019-04-22T09:27:38.540Z,19.70
2019-04-22T09:30:06.297Z,19.70
2019-04-22T09:35:10.185Z,19.90
2019-04-22T09:37:50.020Z,20.10
2019-04-22T09:40:21.743Z,20.20
2019-04-22T09:42:50.554Z,20.30
2019-04-22T09:45:21.162Z,20.30
2019-04-22T09:48:00.858Z,20.40
2019-04-22T09:50:40.470Z,20.50
2019-04-22T09:53:08.332Z,20.60
2019-04-22T09:55:45.098Z,20.60
2019-04-22T09:58:16.583Z,20.70
2019-04-22T10:01:24.738Z,20.80
2019-04-22T10:03:56.261Z,20.90
2019-04-22T10:09:12.681Z,21.20
2019-04-22T10:11:33.956Z,21.30
2019-04-22T10:16:39.440Z,21.70
2019-04-22T10:21:46.327Z,22.00
2019-04-22T10:24:13.720Z,22.20
2019-04-22T10:26:44.093Z,22.40
2019-04-22T10:29:19.596Z,22.50
2019-04-22T10:34:14.029Z,22.60
2019-04-22T10:36:35.413Z,22.80
2019-04-22T10:39:08.564Z,22.90
2019-04-22T10:41:41.259Z,23.10
2019-04-22T10:44:13.115Z,23.20
2019-04-22T10:46:46.266Z,23.40
2019-04-22T10:49:18.201Z,23.50
2019-04-22T10:51:50.764Z,23.50
2019-04-22T10:54:23.355Z,23.40
2019-04-22T10:56:55.128Z,23.40
2019-04-22T10:59:26.922Z,23.40
2019-04-22T11:02:01.451Z,23.50
2019-04-22T11:04:34.280Z,23.60
2019-04-22T11:07:10.728Z,23.70
2019-04-22T11:09:52.017Z,23.90
2019-04-22T11:12:19.238Z,24.10
2019-04-22T11:14:47.725Z,24.10
2019-04-22T11:17:19.588Z,24.00
2019-04-22T11:19:51.282Z,24.00
2019-04-22T11:22:27.682Z,24.10
2019-04-22T11:24:57.970Z,24.10
2019-04-22T11:27:28.675Z,24.20
2019-04-22T11:30:01.854Z,24.30
2019-04-22T11:32:34.304Z,24.50
2019-04-22T11:35:07.827Z,24.60
2019-04-22T11:37:40.692Z,24.50
2019-04-22T11:40:22.280Z,24.50
2019-04-22T11:42:48.215Z,24.50
2019-04-22T11:45:19.522Z,24.60
2019-04-22T11:47:51.095Z,24.70
2019-04-22T11:50:25.982Z,24.80
2019-04-22T11:52:58.586Z,24.80
2019-04-22T11:55:32.908Z,24.90
2019-04-22T11:58:06.738Z,25.00
2019-04-22T12:00:39.070Z,25.00
2019-04-22T12:03:12.504Z,25.00
2019-04-22T12:05:45.980Z,25.00
2019-04-22T12:08:17.749Z,24.80
2019-04-22T12:10:54.593Z,24.60
2019-04-22T12:13:23.762Z,24.50
2019-04-22T12:15:55.682Z,24.60
2019-04-22T12:18:29.009Z,24.70
2019-04-22T12:21:01.303Z,24.80
2019-04-22T12:23:32.778Z,25.00
2019-04-22T12:26:09.281Z,25.00
2019-04-22T12:28:37.103Z,25.20
2019-04-22T12:31:09.419Z,25.30
2019-04-22T12:33:41.491Z,25.40
2019-04-22T12:36:14.749Z,25.50
2019-04-22T12:38:47.630Z,25.50
2019-04-22T12:41:19.834Z,25.30
2019-04-22T12:43:51.641Z,25.30
2019-04-22T12:46:24.043Z,25.30
2019-04-22T12:48:56.310Z,25.40
2019-04-22T12:51:29.138Z,25.40
2019-04-22T12:54:01.367Z,25.50
2019-04-22T12:56:33.514Z,25.50
2019-04-22T12:59:07.644Z,25.60
2019-04-22T13:01:39.561Z,25.60
2019-04-22T13:04:15.316Z,25.70
2019-04-22T13:06:45.932Z,25.80
2019-04-22T13:09:19.500Z,25.80
2019-04-22T13:11:52.852Z,25.80
2019-04-22T13:14:25.142Z,25.70
2019-04-22T13:16:57.747Z,25.50
2019-04-22T13:19:30.261Z,25.30
2019-04-22T13:22:03.104Z,25.20
2019-04-22T13:24:36.178Z,25.20
2019-04-22T13:27:08.865Z,25.20
2019-04-22T13:29:41.235Z,25.10
2019-04-22T13:32:13.168Z,25.10
2019-04-22T13:34:47.998Z,25.00
2019-04-22T13:37:19.131Z,24.90
2019-04-22T13:39:50.563Z,24.90
2019-04-22T13:42:23.442Z,24.80
2019-04-22T13:44:55.925Z,24.80
2019-04-22T13:53:15.158Z,24.70
2019-04-22T13:54:00.251Z,24.80
2019-04-22T13:54:17.150Z,24.80
2019-04-22T13:55:43.649Z,24.70
2019-04-22T13:57:58.265Z,24.60
2019-04-22T14:00:24.871Z,24.60
2019-04-22T14:03:29.046Z,24.60
2019-04-22T14:06:02.620Z,24.70
2019-04-22T14:08:35.272Z,24.70
2019-04-22T14:11:16.930Z,24.60
2019-04-22T14:13:41.723Z,24.60
2019-04-22T14:16:15.142Z,24.70
2019-04-22T14:18:49.676Z,24.70
2019-04-22T14:21:23.017Z,24.80
2019-04-22T14:23:54.394Z,24.80
2019-04-22T14:26:27.325Z,24.80
2019-04-22T14:28:59.986Z,24.80
2019-04-22T14:31:34.094Z,24.80
2019-04-22T14:34:08.202Z,24.80
2019-04-22T14:36:41.298Z,24.80
2019-04-22T14:39:12.918Z,24.70
2019-04-22T14:42:02.688Z,24.60
2019-04-22T14:47:15.792Z,24.50
2019-04-22T14:49:47.419Z,24.60
2019-04-22T14:52:21.555Z,24.60
2019-04-22T14:54:45.889Z,24.70
2019-04-22T14:57:07.211Z,24.90
2019-04-22T14:59:39.934Z,25.00
2019-04-22T15:02:11.790Z,25.00
2019-04-22T15:04:43.617Z,25.00
2019-04-22T15:07:16.842Z,24.90
2019-04-22T15:09:48.258Z,24.80
2019-04-22T15:12:30.186Z,24.80
2019-04-22T15:14:53.516Z,24.70
2019-04-22T15:17:38.748Z,24.70
2019-04-22T15:20:27.730Z,24.60
2019-04-22T15:22:59.539Z,24.50
2019-04-22T15:25:32.629Z,24.30
2019-04-22T15:28:03.792Z,24.40
2019-04-22T15:30:37.304Z,24.30
2019-04-22T15:33:09.725Z,24.40
2019-04-22T15:35:41.189Z,24.50
2019-04-22T15:38:13.276Z,24.50
2019-04-22T15:40:45.262Z,24.50
2019-04-22T15:43:17.306Z,24.40
2019-04-22T15:45:48.847Z,24.40
2019-04-22T15:48:21.204Z,24.40
2019-04-22T15:50:53.045Z,24.30
2019-04-22T15:53:25.421Z,24.30
2019-04-22T15:55:56.676Z,24.30
2019-04-22T15:58:29.969Z,24.30
2019-04-22T16:01:10.751Z,24.30
2019-04-22T16:03:34.508Z,24.30
2019-04-22T16:06:08.106Z,24.40
2019-04-22T16:08:41.044Z,24.30
2019-04-22T16:11:13.808Z,24.30
2019-04-22T16:13:46.579Z,24.40
2019-04-22T16:16:18.684Z,24.40
2019-04-22T16:18:50.755Z,24.40
2019-04-22T16:21:32.681Z,24.50
2019-04-22T16:24:18.216Z,24.50
2019-04-22T16:26:58.288Z,24.40
2019-04-22T16:29:29.586Z,24.40
2019-04-22T16:32:03.039Z,24.30
2019-04-22T16:34:35.934Z,24.30
2019-04-22T16:37:07.640Z,24.30
2019-04-22T16:39:41.939Z,24.30
2019-04-22T16:42:26.936Z,24.30
2019-04-22T16:44:47.497Z,24.30
2019-04-22T16:47:19.784Z,24.30
2019-04-22T16:49:51.913Z,24.20
2019-04-22T16:52:23.805Z,24.10
2019-04-22T16:54:58.947Z,24.10
2019-04-22T16:57:30.514Z,24.10
2019-04-22T17:00:02.917Z,24.00
2019-04-22T17:02:50.085Z,24.00
2019-04-22T17:05:49.867Z,23.90
2019-04-22T17:08:22.330Z,23.80
2019-04-22T17:10:53.739Z,23.60
2019-04-22T17:13:28.771Z,23.50
2019-04-22T17:16:00.506Z,23.40
2019-04-22T17:18:31.032Z,23.30
2019-04-22T17:21:06.627Z,23.20
2019-04-22T17:23:38.224Z,23.20
2019-04-22T17:26:12.568Z,23.10
2019-04-22T17:28:45.848Z,23.00
2019-04-22T17:31:18.473Z,23.00
2019-04-22T17:33:50.809Z,22.80
2019-04-22T17:36:22.375Z,22.80
2019-04-22T17:39:07.042Z,22.80
2019-04-22T17:41:48.499Z,22.70
2019-04-22T17:44:41.382Z,22.70
2019-04-22T17:47:16.790Z,22.60
2019-04-22T17:50:05.181Z,22.60
2019-04-22T17:52:32.785Z,22.60
2019-04-22T17:54:58.991Z,22.50
2019-04-22T17:57:34.448Z,22.40
2019-04-22T18:00:06.471Z,22.30
2019-04-22T18:02:42.435Z,22.30
2019-04-22T18:05:01.144Z,22.20
2019-04-22T18:07:57.654Z,22.10
2019-04-22T18:13:01.748Z,21.90
2019-04-22T18:15:26.934Z,21.80
2019-04-22T18:18:08.707Z,21.70
2019-04-22T18:20:30.013Z,21.70
2019-04-22T18:22:56.964Z,21.60
2019-04-22T18:25:36.446Z,21.40
2019-04-22T18:28:21.424Z,21.30
2019-04-22T18:30:40.152Z,21.30
2019-04-22T18:33:20.718Z,21.20
2019-04-22T18:35:49.151Z,21.10
2019-04-22T18:38:33.162Z,21.10
2019-04-22T18:41:03.533Z,20.90
2019-04-22T18:43:32.941Z,20.80
2019-04-22T18:46:09.498Z,20.70
2019-04-22T18:48:42.545Z,20.70
2019-04-22T18:51:24.928Z,20.60
2019-04-22T18:54:14.717Z,20.50
2019-04-22T18:56:52.490Z,20.40
2019-04-22T18:59:13.554Z,20.40
2019-04-22T19:01:38.161Z,20.30
2019-04-22T19:04:17.162Z,20.20
2019-04-22T19:07:00.373Z,20.20
2019-04-22T19:09:41.417Z,20.10
2019-04-22T19:12:23.023Z,20.10
2019-04-22T19:17:30.042Z,20.00
2019-04-22T19:19:59.587Z,19.90
2019-04-22T19:22:25.328Z,19.80
2019-04-22T19:24:56.026Z,19.80
2019-04-22T19:27:30.994Z,19.70
2019-04-22T19:30:04.515Z,19.70
2019-04-22T19:32:42.026Z,19.60
2019-04-22T19:35:03.745Z,19.60
2019-04-22T19:37:37.413Z,19.50
2019-04-22T19:40:20.581Z,19.50
2019-04-22T19:42:53.490Z,19.30
2019-04-22T19:45:17.607Z,19.30
2019-04-22T19:48:03.637Z,19.20
2019-04-22T19:50:27.751Z,19.20
2019-04-22T19:53:01.263Z,19.10
2019-04-22T19:55:39.253Z,19.10
2019-04-22T19:58:07.193Z,19.00
2019-04-22T20:00:52.019Z,19.00
2019-04-22T20:03:50.874Z,18.90
2019-04-22T20:06:35.308Z,18.80
2019-04-22T20:09:07.332Z,18.80
2019-04-22T20:11:41.876Z,18.70
2019-04-22T20:14:12.547Z,18.60
2019-04-22T20:16:37.444Z,18.60
2019-04-22T20:19:24.953Z,18.50
2019-04-22T20:21:51.826Z,18.50
2019-04-22T20:24:12.047Z,18.40
2019-04-22T20:27:15.230Z,18.40
2019-04-22T20:29:37.674Z,18.30
2019-04-22T20:32:05.384Z,18.30
2019-04-22T20:34:39.041Z,18.30
2019-04-22T20:37:16.595Z,18.20
2019-04-22T20:40:00.463Z,18.10
2019-04-22T20:42:29.760Z,18.10
2019-04-22T20:44:51.685Z,18.00
2019-04-22T20:47:19.193Z,17.90
2019-04-22T20:49:58.756Z,17.80
2019-04-22T20:52:34.173Z,17.80
2019-04-22T20:54:58.913Z,17.80
2019-04-22T20:57:36.308Z,17.70
2019-04-22T21:00:05.389Z,17.70
2019-04-22T21:02:32.310Z,17.60
2019-04-22T21:05:03.209Z,17.60
2019-04-22T21:07:48.007Z,17.50
2019-04-22T21:10:18.416Z,17.50
2019-04-22T21:12:55.811Z,17.40
2019-04-22T21:15:40.821Z,17.40
2019-04-22T21:18:01.160Z,17.40
2019-04-22T21:20:39.248Z,17.30
2019-04-22T21:23:17.827Z,17.30
2019-04-22T21:25:43.034Z,17.20
2019-04-22T21:28:31.232Z,17.10
2019-04-22T21:30:57.124Z,17.10
2019-04-22T21:33:24.844Z,17.10
2019-04-22T21:36:19.009Z,17.00
2019-04-22T21:38:37.592Z,17.00
2019-04-22T21:41:09.861Z,17.00
2019-04-22T21:43:48.125Z,16.90
2019-04-22T21:46:16.526Z,16.90
2019-04-22T21:48:52.814Z,16.90
2019-04-22T21:51:31.670Z,16.80
2019-04-22T21:54:06.904Z,16.80
2019-04-22T21:56:40.774Z,16.70
2019-04-22T21:59:11.100Z,16.70
2019-04-22T22:04:17.392Z,16.60
2019-04-22T22:06:40.971Z,16.50
2019-04-22T22:09:25.402Z,16.50
2019-04-22T22:11:55.467Z,16.50
2019-04-22T22:14:27.622Z,16.50
2019-04-22T22:16:53.370Z,16.50
2019-04-22T22:19:38.012Z,16.40
2019-04-22T22:22:25.452Z,16.40
2019-04-22T22:24:46.718Z,16.40
2019-04-22T22:27:14.259Z,16.40
2019-04-22T22:30:05.556Z,16.30
2019-04-22T22:32:26.020Z,16.20
2019-04-22T22:34:58.750Z,16.20
2019-04-22T22:37:17.077Z,16.10
2019-04-22T22:39:52.832Z,16.10
2019-04-22T22:42:22.546Z,16.10
2019-04-22T22:44:52.642Z,16.10
2019-04-22T22:47:38.362Z,16.10
2019-04-22T22:50:12.556Z,16.00
2019-04-22T22:53:02.380Z,16.00
2019-04-22T22:55:20.008Z,16.00
2019-04-22T22:57:50.224Z,15.90
2019-04-22T23:00:22.321Z,15.90
2019-04-22T23:03:25.981Z,15.90
2019-04-22T23:05:37.668Z,15.90
2019-04-22T23:08:09.569Z,15.90
2019-04-22T23:10:54.247Z,15.90
2019-04-22T23:13:20.455Z,15.80
2019-04-22T23:15:38.730Z,15.80
2019-04-22T23:17:58.130Z,15.80
2019-04-22T23:20:34.448Z,15.70
2019-04-22T23:23:20.143Z,15.70
2019-04-22T23:26:02.576Z,15.70
2019-04-22T23:28:43.556Z,15.70
2019-04-22T23:31:31.684Z,15.60
2019-04-22T23:34:10.654Z,15.60
2019-04-22T23:36:57.519Z,15.50
2019-04-22T23:39:41.987Z,15.50
2019-04-22T23:42:15.969Z,15.40
2019-04-22T23:44:46.937Z,15.40
2019-04-22T23:47:35.149Z,15.40
2019-04-22T23:50:14.756Z,15.40
2019-04-22T23:52:53.051Z,15.40
2019-04-22T23:55:29.514Z,15.30
2019-04-22T23:58:02.980Z,15.30
